createdAt,value
2018-11-06T00:02:17.244Z,9.40
2018-11-06T00:04:50.800Z,9.30
2018-11-06T00:07:18.824Z,9.30
2018-11-06T00:09:46.796Z,9.20
2018-11-06T00:12:14.794Z,9.20
2018-11-06T00:14:42.775Z,9.10
2018-11-06T00:17:10.743Z,9.00
2018-11-06T00:19:38.728Z,9.10
2018-11-06T00:22:07.798Z,9.10
2018-11-06T00:24:35.811Z,9.10
2018-11-06T00:27:03.868Z,9.10
2018-11-06T00:29:31.870Z,9.00
2018-11-06T00:32:00.728Z,9.00
2018-11-06T00:34:28.729Z,8.90
2018-11-06T00:36:56.714Z,8.90
2018-11-06T00:39:24.694Z,9.00
2018-11-06T00:41:52.700Z,9.00
2018-11-06T00:44:20.684Z,9.00
2018-11-06T00:46:48.684Z,9.00
2018-11-06T00:49:16.718Z,9.00
2018-11-06T00:51:44.724Z,9.10
2018-11-06T00:54:12.697Z,9.10
2018-11-06T00:56:40.679Z,9.30
2018-11-06T00:59:09.708Z,9.30
2018-11-06T01:01:37.716Z,9.40
2018-11-06T01:04:08.600Z,9.40
2018-11-06T01:06:36.636Z,9.50
2018-11-06T01:09:06.042Z,9.60
2018-11-06T01:11:34.015Z,9.60
2018-11-06T01:14:01.997Z,9.60
2018-11-06T01:16:30.006Z,9.60
2018-11-06T01:18:58.021Z,9.60
2018-11-06T01:21:26.024Z,9.60
2018-11-06T01:23:54.045Z,9.60
2018-11-06T01:26:22.014Z,9.60
2018-11-06T01:28:49.999Z,9.60
2018-11-06T01:31:17.968Z,9.60
2018-11-06T01:33:45.942Z,9.60
2018-11-06T01:36:13.912Z,9.70
2018-11-06T01:38:41.864Z,9.70
2018-11-06T01:41:09.848Z,9.70
2018-11-06T01:43:37.828Z,9.60
2018-11-06T01:46:05.996Z,9.60
2018-11-06T01:48:33.991Z,9.70
2018-11-06T01:51:01.998Z,9.70
2018-11-06T01:53:29.980Z,9.60
2018-11-06T01:55:57.967Z,9.60
2018-11-06T01:58:25.943Z,9.60
2018-11-06T02:00:53.949Z,9.60
2018-11-06T02:03:21.932Z,9.60
2018-11-06T02:05:49.952Z,9.60
2018-11-06T02:08:17.944Z,9.60
2018-11-06T02:10:45.912Z,9.60
2018-11-06T02:13:13.885Z,9.60
2018-11-06T02:15:41.906Z,9.50
2018-11-06T02:18:09.905Z,9.50
2018-11-06T02:20:37.888Z,9.60
2018-11-06T02:23:05.892Z,9.50
2018-11-06T02:25:33.950Z,9.50
2018-11-06T02:28:01.998Z,9.50
2018-11-06T02:30:29.971Z,9.50
2018-11-06T02:32:57.956Z,9.40
2018-11-06T02:35:25.975Z,9.40
2018-11-06T02:37:53.952Z,9.40
2018-11-06T02:40:21.930Z,9.40
2018-11-06T02:42:49.908Z,9.40
2018-11-06T02:45:17.884Z,9.30
2018-11-06T02:47:45.894Z,9.30
2018-11-06T02:50:14.546Z,9.30
2018-11-06T02:52:43.005Z,9.30
2018-11-06T02:55:11.338Z,9.20
2018-11-06T02:57:39.613Z,9.20
2018-11-06T03:00:09.603Z,9.10
2018-11-06T03:02:37.579Z,9.10
2018-11-06T03:05:06.193Z,9.10
2018-11-06T03:07:34.140Z,9.10
2018-11-06T03:10:02.128Z,9.10
2018-11-06T03:12:30.081Z,9.10
2018-11-06T03:14:58.031Z,9.10
2018-11-06T03:17:26.017Z,9.10
2018-11-06T03:19:53.985Z,9.10
2018-11-06T03:22:22.065Z,9.10
2018-11-06T03:24:50.039Z,9.10
2018-11-06T03:27:18.089Z,9.10
2018-11-06T03:29:46.063Z,9.10
2018-11-06T03:32:14.137Z,9.10
2018-11-06T03:34:42.191Z,9.10
2018-11-06T03:37:10.177Z,9.00
2018-11-06T03:39:38.162Z,9.00
2018-11-06T03:42:06.239Z,9.00
2018-11-06T03:44:34.309Z,9.00
2018-11-06T03:47:02.355Z,9.00
2018-11-06T03:49:30.447Z,8.90
2018-11-06T03:51:58.489Z,8.90
2018-11-06T03:54:26.444Z,8.90
2018-11-06T03:56:54.445Z,8.90
2018-11-06T03:59:22.412Z,8.90
2018-11-06T04:01:51.195Z,8.90
2018-11-06T04:04:19.165Z,8.90
2018-11-06T04:06:47.116Z,8.90
2018-11-06T04:09:15.989Z,8.90
2018-11-06T04:11:44.016Z,8.80
2018-11-06T04:14:12.224Z,8.80
2018-11-06T04:16:40.152Z,8.80
2018-11-06T04:19:08.520Z,8.70
2018-11-06T04:21:37.496Z,8.70
2018-11-06T04:24:07.205Z,8.70
2018-11-06T04:26:36.010Z,8.70
2018-11-06T04:29:04.676Z,8.70
2018-11-06T04:31:32.670Z,8.70
2018-11-06T04:34:00.718Z,8.70
2018-11-06T04:36:29.088Z,8.70
2018-11-06T04:38:57.273Z,8.70
2018-11-06T04:41:25.676Z,8.70
2018-11-06T04:43:53.668Z,8.80
2018-11-06T04:46:21.929Z,8.70
2018-11-06T04:48:50.378Z,8.80
2018-11-06T04:51:18.568Z,8.80
2018-11-06T04:53:46.616Z,8.80
2018-11-06T04:56:14.556Z,8.80
2018-11-06T04:58:42.597Z,8.80
2018-11-06T05:01:10.564Z,8.80
2018-11-06T05:03:44.028Z,8.80
2018-11-06T05:06:12.133Z,8.70
2018-11-06T05:08:40.153Z,8.80
2018-11-06T05:11:08.169Z,8.80
2018-11-06T05:13:36.173Z,8.80
2018-11-06T05:16:04.480Z,8.80
2018-11-06T05:18:32.455Z,8.80
2018-11-06T05:21:00.524Z,8.70
2018-11-06T05:23:28.505Z,8.80
2018-11-06T05:25:56.497Z,8.80
2018-11-06T05:28:24.520Z,8.80
2018-11-06T05:30:52.610Z,8.70
2018-11-06T05:33:20.665Z,8.70
2018-11-06T05:35:48.653Z,8.70
2018-11-06T05:38:16.710Z,8.70
2018-11-06T05:40:54.793Z,8.70
2018-11-06T05:43:22.757Z,8.60
2018-11-06T05:45:51.387Z,8.70
2018-11-06T05:48:19.431Z,8.70
2018-11-06T05:50:47.713Z,8.80
2018-11-06T05:53:16.150Z,8.80
2018-11-06T05:55:44.158Z,8.80
2018-11-06T05:58:12.124Z,8.80
2018-11-06T06:00:40.580Z,8.80
2018-11-06T06:03:08.489Z,8.80
2018-11-06T06:05:36.484Z,8.70
2018-11-06T06:08:05.232Z,8.80
2018-11-06T06:10:33.298Z,8.80
2018-11-06T06:13:01.398Z,8.80
2018-11-06T06:15:29.358Z,8.80
2018-11-06T06:17:57.604Z,8.90
2018-11-06T06:20:25.564Z,8.90
2018-11-06T06:22:53.533Z,8.90
2018-11-06T06:25:21.591Z,8.80
2018-11-06T06:27:49.574Z,8.80
2018-11-06T06:30:18.012Z,8.90
2018-11-06T06:32:46.005Z,8.90
2018-11-06T06:35:14.050Z,9.00
2018-11-06T06:37:42.397Z,9.00
2018-11-06T06:40:12.459Z,9.00
2018-11-06T06:42:40.796Z,9.00
2018-11-06T06:45:11.425Z,9.00
2018-11-06T06:50:25.176Z,9.10
2018-11-06T06:52:53.344Z,9.20
2018-11-06T06:55:21.316Z,9.20
2018-11-06T06:57:49.417Z,9.20
2018-11-06T07:00:18.698Z,9.30
2018-11-06T07:02:46.776Z,9.30
2018-11-06T07:05:16.262Z,9.30
2018-11-06T07:07:44.580Z,9.40
2018-11-06T07:10:14.559Z,9.40
2018-11-06T07:12:43.612Z,9.40
2018-11-06T07:15:12.764Z,9.40
2018-11-06T07:17:41.112Z,9.50
2018-11-06T07:20:11.293Z,9.50
2018-11-06T07:22:39.423Z,9.50
2018-11-06T07:25:08.711Z,9.50
2018-11-06T07:27:36.812Z,9.60
2018-11-06T07:30:07.131Z,9.60
2018-11-06T07:32:35.096Z,9.70
2018-11-06T07:35:03.262Z,9.70
2018-11-06T07:37:31.039Z,9.80
2018-11-06T07:39:59.027Z,9.80
2018-11-06T07:42:27.053Z,9.90
2018-11-06T07:44:55.056Z,10.00
2018-11-06T07:47:23.020Z,10.00
2018-11-06T07:49:51.122Z,10.10
2018-11-06T07:52:19.055Z,10.10
2018-11-06T07:54:47.114Z,10.20
2018-11-06T07:57:15.065Z,10.30
2018-11-06T07:59:43.088Z,10.30
2018-11-06T08:02:11.070Z,10.30
2018-11-06T08:04:39.069Z,10.30
2018-11-06T08:07:07.033Z,10.40
2018-11-06T08:09:35.066Z,10.50
2018-11-06T08:12:03.017Z,10.50
2018-11-06T08:14:31.020Z,10.50
2018-11-06T08:16:58.962Z,10.60
2018-11-06T08:19:26.986Z,10.60
2018-11-06T08:21:55.020Z,10.70
2018-11-06T08:24:22.982Z,10.80
2018-11-06T08:26:50.964Z,10.80
2018-11-06T08:29:18.932Z,11.00
2018-11-06T08:31:47.152Z,11.00
2018-11-06T08:34:14.894Z,11.00
2018-11-06T08:36:42.980Z,11.10
2018-11-06T08:39:11.762Z,11.10
2018-11-06T08:41:40.102Z,11.20
2018-11-06T08:44:08.313Z,11.30
2018-11-06T08:46:36.324Z,11.40
2018-11-06T08:49:04.544Z,11.40
2018-11-06T08:51:32.548Z,11.40
2018-11-06T08:54:00.537Z,11.50
2018-11-06T08:56:28.560Z,11.60
2018-11-06T08:58:56.520Z,11.70
2018-11-06T09:01:24.509Z,12.00
2018-11-06T09:03:52.569Z,12.00
2018-11-06T09:06:20.535Z,12.00
2018-11-06T09:08:48.638Z,12.00
2018-11-06T09:11:16.676Z,12.00
2018-11-06T09:13:44.749Z,12.10
2018-11-06T09:16:12.736Z,12.10
2018-11-06T09:18:40.741Z,12.20
2018-11-06T09:21:08.735Z,12.20
2018-11-06T09:23:36.705Z,12.30
2018-11-06T09:26:04.904Z,12.30
2018-11-06T09:28:32.878Z,12.30
2018-11-06T09:31:01.003Z,12.30
2018-11-06T09:33:28.925Z,12.40
2018-11-06T09:35:56.980Z,12.50
2018-11-06T09:38:25.050Z,12.60
2018-11-06T09:40:53.012Z,12.60
2018-11-06T09:43:20.970Z,12.70
2018-11-06T09:45:48.989Z,12.70
2018-11-06T09:48:16.940Z,12.70
2018-11-06T09:50:44.993Z,12.80
2018-11-06T09:53:12.980Z,12.90
2018-11-06T09:55:41.029Z,12.90
2018-11-06T09:58:09.515Z,13.00
2018-11-06T10:00:37.485Z,13.10
2018-11-06T10:03:05.693Z,13.20
2018-11-06T10:05:33.701Z,13.30
2018-11-06T10:08:01.725Z,13.30
2018-11-06T10:10:29.768Z,13.30
2018-11-06T10:12:57.775Z,13.40
2018-11-06T10:15:25.813Z,13.50
2018-11-06T10:17:53.786Z,13.60
2018-11-06T10:20:21.805Z,13.60
2018-11-06T10:22:49.924Z,13.70
2018-11-06T10:25:17.904Z,13.70
2018-11-06T10:27:45.908Z,13.80
2018-11-06T10:30:16.689Z,13.90
2018-11-06T10:32:44.704Z,14.00
2018-11-06T10:35:12.829Z,14.00
2018-11-06T10:37:40.902Z,14.10
2018-11-06T10:40:13.567Z,14.20
2018-11-06T10:42:41.770Z,14.40
2018-11-06T10:45:09.873Z,14.40
2018-11-06T10:47:38.169Z,14.60
2018-11-06T10:50:07.002Z,15.10
2018-11-06T10:52:35.061Z,15.40
2018-11-06T10:55:03.032Z,15.90
2018-11-06T10:57:31.004Z,16.20
2018-11-06T10:59:59.037Z,16.20
2018-11-06T11:02:32.576Z,16.60
2018-11-06T11:05:00.632Z,17.10
2018-11-06T11:07:28.629Z,17.30
2018-11-06T11:09:56.805Z,17.60
2018-11-06T11:12:25.013Z,17.80
2018-11-06T11:14:53.036Z,17.80
2018-11-06T11:17:21.005Z,17.70
2018-11-06T11:19:49.068Z,18.50
2018-11-06T11:22:17.229Z,19.00
2018-11-06T11:24:45.277Z,18.90
2018-11-06T11:27:13.302Z,18.80
2018-11-06T11:29:41.280Z,19.20
2018-11-06T11:32:09.320Z,19.80
2018-11-06T11:34:37.308Z,20.00
2018-11-06T11:37:05.313Z,20.10
2018-11-06T11:39:33.308Z,20.40
2018-11-06T11:42:01.316Z,20.30
2018-11-06T11:44:29.339Z,20.00
2018-11-06T11:46:57.334Z,20.00
2018-11-06T11:49:25.466Z,20.40
2018-11-06T11:51:53.497Z,20.60
2018-11-06T11:54:21.444Z,20.20
2018-11-06T11:56:49.509Z,20.60
2018-11-06T11:59:17.484Z,21.30
2018-11-06T12:01:45.465Z,21.70
2018-11-06T12:04:13.460Z,22.70
2018-11-06T12:06:41.436Z,23.10
2018-11-06T12:09:10.205Z,23.50
2018-11-06T12:11:38.296Z,24.20
2018-11-06T12:14:06.277Z,24.70
2018-11-06T12:16:34.568Z,25.40
2018-11-06T12:19:02.667Z,26.30
2018-11-06T12:21:30.761Z,26.60
2018-11-06T12:23:58.772Z,27.20
2018-11-06T12:26:26.816Z,27.20
2018-11-06T12:28:54.844Z,26.20
2018-11-06T12:31:22.852Z,27.00
2018-11-06T12:33:50.816Z,26.90
2018-11-06T12:36:18.825Z,25.80
2018-11-06T12:38:46.828Z,25.70
2018-11-06T12:41:14.805Z,25.40
2018-11-06T12:43:42.941Z,25.10
2018-11-06T12:46:10.756Z,24.30
2018-11-06T12:48:38.732Z,23.60
2018-11-06T12:51:06.887Z,22.80
2018-11-06T12:53:34.946Z,22.30
2018-11-06T12:56:02.991Z,22.00
2018-11-06T12:58:30.985Z,21.40
2018-11-06T13:00:58.959Z,21.60
2018-11-06T13:03:33.531Z,20.70
2018-11-06T13:06:01.646Z,20.40
2018-11-06T13:08:29.618Z,20.10
2018-11-06T13:10:57.633Z,20.10
2018-11-06T13:13:25.584Z,19.90
2018-11-06T13:15:53.736Z,19.80
2018-11-06T13:18:21.572Z,20.20
2018-11-06T13:20:49.614Z,20.00
2018-11-06T13:23:17.612Z,19.60
2018-11-06T13:25:45.678Z,19.50
2018-11-06T13:28:13.576Z,19.30
2018-11-06T13:30:41.578Z,19.00
2018-11-06T13:33:09.516Z,18.70
2018-11-06T13:35:37.523Z,18.40
2018-11-06T13:38:05.640Z,18.00
2018-11-06T13:40:33.596Z,17.80
2018-11-06T13:43:01.629Z,17.70
2018-11-06T13:45:29.785Z,17.70
2018-11-06T13:47:57.658Z,17.50
2018-11-06T13:50:25.688Z,17.30
2018-11-06T13:52:53.725Z,17.10
2018-11-06T13:55:21.685Z,16.90
2018-11-06T13:57:49.640Z,16.70
2018-11-06T14:00:18.825Z,16.50
2018-11-06T14:02:46.808Z,16.40
2018-11-06T14:05:15.153Z,16.50
2018-11-06T14:07:43.127Z,16.40
2018-11-06T14:10:11.150Z,16.50
2018-11-06T14:12:39.432Z,16.30
2018-11-06T14:15:07.444Z,16.30
2018-11-06T14:17:35.600Z,16.20
2018-11-06T14:20:03.871Z,16.20
2018-11-06T14:22:32.221Z,16.30
2018-11-06T14:25:00.177Z,16.20
2018-11-06T14:27:28.212Z,16.10
2018-11-06T14:29:56.117Z,16.00
2018-11-06T14:32:24.079Z,16.00
2018-11-06T14:34:52.039Z,15.80
2018-11-06T14:37:20.059Z,15.60
2018-11-06T14:39:48.021Z,15.50
2018-11-06T14:42:16.012Z,15.50
2018-11-06T14:44:44.064Z,15.50
2018-11-06T14:47:12.148Z,15.50
2018-11-06T14:49:40.125Z,15.40
2018-11-06T14:52:08.323Z,15.40
2018-11-06T14:54:37.084Z,15.30
2018-11-06T14:57:05.296Z,15.30
2018-11-06T14:59:33.266Z,15.30
2018-11-06T15:02:01.316Z,15.20
2018-11-06T15:04:29.354Z,15.20
2018-11-06T15:06:57.425Z,15.10
2018-11-06T15:09:25.379Z,15.00
2018-11-06T15:11:53.348Z,15.00
2018-11-06T15:14:21.336Z,14.90
2018-11-06T15:16:49.331Z,14.80
2018-11-06T15:19:17.465Z,14.80
2018-11-06T15:21:45.432Z,14.70
2018-11-06T15:24:13.401Z,14.70
2018-11-06T15:26:41.382Z,14.60
2018-11-06T15:29:09.389Z,14.60
2018-11-06T15:31:37.396Z,14.50
2018-11-06T15:34:05.593Z,14.50
2018-11-06T15:36:33.560Z,14.40
2018-11-06T15:39:01.565Z,14.40
2018-11-06T15:41:30.453Z,14.30
2018-11-06T15:43:58.389Z,14.30
2018-11-06T15:46:26.384Z,14.30
2018-11-06T15:48:54.388Z,14.20
2018-11-06T15:51:22.396Z,14.20
2018-11-06T15:53:50.385Z,14.20
2018-11-06T15:56:18.357Z,14.20
2018-11-06T15:58:46.341Z,14.20
2018-11-06T16:01:14.373Z,14.10
2018-11-06T16:03:42.537Z,14.10
2018-11-06T16:06:10.525Z,14.10
2018-11-06T16:08:38.575Z,14.00
2018-11-06T16:11:06.569Z,14.10
2018-11-06T16:13:34.544Z,14.10
2018-11-06T16:16:02.496Z,14.00
2018-11-06T16:18:30.498Z,14.00
2018-11-06T16:20:58.527Z,14.00
2018-11-06T16:23:26.488Z,14.00
2018-11-06T16:25:54.477Z,14.00
2018-11-06T16:28:22.443Z,14.00
2018-11-06T16:30:50.409Z,14.00
2018-11-06T16:33:18.381Z,14.00
2018-11-06T16:35:46.379Z,13.90
2018-11-06T16:38:14.393Z,13.90
2018-11-06T16:40:42.416Z,13.90
2018-11-06T16:43:10.398Z,13.90
2018-11-06T16:45:38.514Z,13.80
2018-11-06T16:48:06.473Z,13.80
2018-11-06T16:50:34.577Z,13.70
2018-11-06T16:53:02.553Z,13.70
2018-11-06T16:55:30.521Z,13.70
2018-11-06T16:57:58.505Z,13.60
2018-11-06T17:00:27.427Z,13.70
2018-11-06T17:02:55.227Z,13.60
2018-11-06T17:05:23.326Z,13.60
2018-11-06T17:07:51.675Z,13.60
2018-11-06T17:10:20.060Z,13.60
2018-11-06T17:12:48.222Z,13.60
2018-11-06T17:15:17.529Z,13.60
2018-11-06T17:17:46.332Z,13.60
2018-11-06T17:20:14.808Z,13.50
2018-11-06T17:22:42.835Z,13.50
2018-11-06T17:25:12.294Z,13.50
2018-11-06T17:27:40.428Z,13.50
2018-11-06T17:30:10.183Z,13.50
2018-11-06T17:32:38.881Z,13.40
2018-11-06T17:35:08.321Z,13.40
2018-11-06T17:37:37.020Z,13.40
2018-11-06T17:40:06.544Z,13.30
2018-11-06T17:42:34.585Z,13.30
2018-11-06T17:45:02.591Z,13.20
2018-11-06T17:47:30.582Z,13.20
2018-11-06T17:49:58.600Z,13.10
2018-11-06T17:52:26.584Z,13.10
2018-11-06T17:54:54.699Z,13.00
2018-11-06T17:57:22.630Z,13.00
2018-11-06T17:59:50.776Z,13.00
2018-11-06T18:02:18.753Z,12.90
2018-11-06T18:04:46.818Z,12.90
2018-11-06T18:07:14.881Z,12.90
2018-11-06T18:09:42.904Z,12.90
2018-11-06T18:12:10.953Z,12.80
2018-11-06T18:14:39.002Z,12.80
2018-11-06T18:17:07.009Z,12.80
2018-11-06T18:19:35.003Z,12.80
2018-11-06T18:22:03.030Z,12.80
2018-11-06T18:24:31.084Z,12.80
2018-11-06T18:26:59.046Z,12.80
2018-11-06T18:29:27.108Z,12.70
2018-11-06T18:31:55.141Z,12.70
2018-11-06T18:34:23.104Z,12.70
2018-11-06T18:36:51.230Z,12.70
2018-11-06T18:39:19.241Z,12.60
2018-11-06T18:41:47.261Z,12.60
2018-11-06T18:44:15.388Z,12.60
2018-11-06T18:46:43.268Z,12.60
2018-11-06T18:49:11.250Z,12.60
2018-11-06T18:51:39.260Z,12.60
2018-11-06T18:54:07.257Z,12.60
2018-11-06T18:56:35.261Z,12.60
2018-11-06T18:59:03.304Z,12.60
2018-11-06T19:01:37.768Z,12.70
2018-11-06T19:04:06.125Z,12.60
2018-11-06T19:06:34.256Z,12.60
2018-11-06T19:09:02.295Z,12.50
2018-11-06T19:11:30.481Z,12.50
2018-11-06T19:13:58.420Z,12.50
2018-11-06T19:16:26.448Z,12.40
2018-11-06T19:18:54.388Z,12.40
2018-11-06T19:21:22.382Z,12.40
2018-11-06T19:23:50.413Z,12.40
2018-11-06T19:26:18.509Z,12.30
2018-11-06T19:28:46.493Z,12.30
2018-11-06T19:31:14.766Z,12.30
2018-11-06T19:33:42.764Z,12.20
2018-11-06T19:36:10.782Z,12.20
2018-11-06T19:38:38.784Z,12.20
2018-11-06T19:41:07.040Z,12.20
2018-11-06T19:43:35.037Z,12.10
2018-11-06T19:46:03.306Z,12.20
2018-11-06T19:48:31.648Z,12.20
2018-11-06T19:50:59.699Z,12.20
2018-11-06T19:53:27.719Z,12.10
2018-11-06T19:55:55.839Z,12.10
2018-11-06T19:58:23.829Z,12.10
2018-11-06T20:00:52.061Z,12.00
2018-11-06T20:03:20.060Z,12.00
2018-11-06T20:05:48.428Z,12.10
2018-11-06T20:08:16.369Z,12.00
2018-11-06T20:10:44.677Z,12.00
2018-11-06T20:13:12.698Z,12.10
2018-11-06T20:15:40.868Z,12.00
2018-11-06T20:18:09.038Z,12.00
2018-11-06T20:20:37.220Z,12.00
2018-11-06T20:23:05.553Z,12.00
2018-11-06T20:25:33.613Z,11.90
2018-11-06T20:28:01.846Z,11.90
2018-11-06T20:30:29.840Z,11.90
2018-11-06T20:32:57.867Z,11.90
2018-11-06T20:35:25.811Z,11.90
2018-11-06T20:37:53.771Z,11.80
2018-11-06T20:40:23.195Z,11.80
2018-11-06T20:42:51.288Z,11.80
2018-11-06T20:45:20.093Z,11.80
2018-11-06T20:47:48.092Z,11.80
2018-11-06T20:50:17.326Z,11.70
2018-11-06T20:52:45.504Z,11.70
2018-11-06T20:55:14.473Z,11.70
2018-11-06T20:57:42.517Z,11.70
2018-11-06T21:00:17.588Z,11.60
2018-11-06T21:02:45.831Z,11.50
2018-11-06T21:05:14.480Z,11.50
2018-11-06T21:07:42.576Z,11.50
2018-11-06T21:10:10.720Z,11.40
2018-11-06T21:12:38.828Z,11.30
2018-11-06T21:15:07.802Z,11.30
2018-11-06T21:17:35.930Z,11.30
2018-11-06T21:20:04.998Z,11.30
2018-11-06T21:22:33.061Z,11.20
2018-11-06T21:25:01.149Z,11.20
2018-11-06T21:27:29.210Z,11.20
2018-11-06T21:29:57.232Z,11.20
2018-11-06T21:32:25.517Z,11.20
2018-11-06T21:34:53.557Z,11.20
2018-11-06T21:37:21.676Z,11.10
2018-11-06T21:39:49.742Z,11.10
2018-11-06T21:42:17.824Z,11.10
2018-11-06T21:44:45.969Z,11.10
2018-11-06T21:47:14.735Z,11.20
2018-11-06T21:49:42.932Z,11.20
2018-11-06T21:52:11.031Z,11.10
2018-11-06T21:54:39.744Z,11.10
2018-11-06T21:57:07.780Z,11.00
2018-11-06T21:59:35.930Z,11.00
2018-11-06T22:02:04.020Z,10.90
2018-11-06T22:04:32.069Z,10.80
2018-11-06T22:07:00.079Z,10.70
2018-11-06T22:09:28.160Z,10.70
2018-11-06T22:11:56.235Z,10.70
2018-11-06T22:14:24.446Z,10.70
2018-11-06T22:16:52.617Z,10.70
2018-11-06T22:19:20.638Z,10.70
2018-11-06T22:21:48.822Z,10.70
2018-11-06T22:24:16.900Z,10.70
2018-11-06T22:26:44.968Z,10.70
2018-11-06T22:29:13.028Z,10.70
2018-11-06T22:31:41.209Z,10.60
2018-11-06T22:34:09.237Z,10.70
2018-11-06T22:36:37.306Z,10.70
2018-11-06T22:39:07.520Z,10.70
2018-11-06T22:41:35.646Z,10.70
2018-11-06T22:44:03.702Z,10.70
2018-11-06T22:46:31.790Z,10.70
2018-11-06T22:48:59.908Z,10.70
2018-11-06T22:51:28.005Z,10.70
2018-11-06T22:53:56.146Z,10.70
2018-11-06T22:56:24.168Z,10.70
2018-11-06T22:58:52.220Z,10.70
2018-11-06T23:01:24.171Z,10.70
2018-11-06T23:03:52.965Z,10.70
2018-11-06T23:06:21.541Z,10.60
2018-11-06T23:08:49.461Z,10.70
2018-11-06T23:11:17.460Z,10.70
2018-11-06T23:13:45.536Z,10.70
2018-11-06T23:16:13.629Z,10.70
2018-11-06T23:18:41.775Z,10.70
2018-11-06T23:21:09.871Z,10.60
2018-11-06T23:23:37.918Z,10.50
2018-11-06T23:26:05.950Z,10.60
2018-11-06T23:28:34.000Z,10.50
2018-11-06T23:31:02.043Z,10.50
2018-11-06T23:33:30.158Z,10.40
2018-11-06T23:35:58.212Z,10.40
2018-11-06T23:38:26.320Z,10.40
2018-11-06T23:40:54.364Z,10.30
2018-11-06T23:43:22.401Z,10.30
2018-11-06T23:45:50.396Z,10.30
2018-11-06T23:48:18.442Z,10.20
2018-11-06T23:50:46.507Z,10.10
2018-11-06T23:53:14.564Z,10.10
2018-11-06T23:55:43.484Z,10.10
2018-11-06T23:58:11.501Z,10.00
